To NAV CANADA Home Page Login to a new session Search on AWWS site Feedback and Comments Disclaimer Vers la page française équivalente Tips FAQ What's new on the site To the Forecasts and Observations / NOTAM section To "File a Flight Plan" website Publications and other links Update of the User's profile FIC Telephone Numbers My Weather Data Folder Route Weather Data Regional Weather Data Local Weather Data To the Forecasts and Observations / NOTAM section
Request Generated 06/26/2017 at 22:36:22 UTC . Weather information available at that time is displayed.

METAR/TAF

SARNIA (CHRIS HADFIELD)/ON    (show WxCam)

METAR CYZR 262200Z AUTO 26014KT 9SM FEW060 BKN099 19/06 A2993 RMK
SLP137 DENSITY ALT 1200FT=
SPECI CYZR 262159Z AUTO 26014KT 9SM FEW060 SCT099 19/06 A2993 RMK
SLP137 DENSITY ALT 1200FT=
METAR CYZR 262100Z AUTO 28004KT 200V300 9SM BKN100 19/09 A2995 RMK
SLP142 DENSITY ALT 1100FT=
SPECI CYZR 262010Z AUTO 23008KT 180V270 9SM BKN075 OVC092 16/10 A2997
RMK LTNG DIST E SE SLP150 DENSITY ALT 700FT=
METAR CYZR 262000Z AUTO 24006G16KT 9SM -RA SCT060 OVC076 15/10 A2998
RMK SLP153 DENSITY ALT 600FT=

TAF AMD CYZR 262218Z 2622/2702 26014G24KT P6SM BKN070 TEMPO 2622/2701
SCT100
FM270100 26010G20KT P6SM FEW060
RMK FCST BASED ON AUTO OBS. NXT FCST WILL BE ISSUED AT 270745Z=
Your time UTC time
Weather data provided by Environment Canada and NAV CANADA